createdAt,value
2023-01-06T00:01:04.735Z,20.47
2023-01-06T00:03:31.415Z,20.44
2023-01-06T00:05:59.911Z,20.48
2023-01-06T00:08:26.674Z,20.48
2023-01-06T00:10:53.651Z,20.46
2023-01-06T00:13:20.241Z,20.50
2023-01-06T00:15:46.971Z,20.48
2023-01-06T00:18:13.592Z,20.47
2023-01-06T00:20:40.687Z,20.49
2023-01-06T00:23:07.365Z,20.50
2023-01-06T00:25:33.991Z,20.51
2023-01-06T00:28:00.591Z,20.50
2023-01-06T00:30:27.181Z,20.52
2023-01-06T00:32:53.749Z,20.50
2023-01-06T00:35:20.385Z,20.53
2023-01-06T00:37:46.992Z,20.53
2023-01-06T00:40:13.570Z,20.55
2023-01-06T00:42:40.204Z,20.57
2023-01-06T00:45:07.232Z,20.61
2023-01-06T00:47:33.837Z,20.63
2023-01-06T00:50:00.584Z,20.62
2023-01-06T00:52:27.160Z,20.63
2023-01-06T00:54:53.756Z,20.65
2023-01-06T00:57:20.313Z,20.64
2023-01-06T00:59:47.043Z,20.62
2023-01-06T01:02:13.814Z,20.64
2023-01-06T01:04:40.467Z,20.63
2023-01-06T01:07:07.059Z,20.66
2023-01-06T01:09:33.691Z,20.67
2023-01-06T01:12:12.900Z,20.71
2023-01-06T01:14:49.039Z,20.69
2023-01-06T01:17:19.366Z,20.66
2023-01-06T01:19:46.481Z,20.68
2023-01-06T01:22:13.328Z,20.68
2023-01-06T01:24:40.063Z,20.66
2023-01-06T01:27:06.679Z,20.70
2023-01-06T01:29:33.634Z,20.69
2023-01-06T01:32:00.384Z,20.69
2023-01-06T01:34:27.078Z,20.72
2023-01-06T01:36:54.816Z,20.71
2023-01-06T01:39:24.283Z,20.69
2023-01-06T01:41:51.499Z,20.71
2023-01-06T01:44:52.082Z,20.72
2023-01-06T01:47:43.102Z,20.70
2023-01-06T01:50:14.608Z,20.69
2023-01-06T01:52:43.375Z,20.69
2023-01-06T01:55:11.574Z,20.69
2023-01-06T01:57:48.177Z,20.68
2023-01-06T02:00:15.074Z,20.69
2023-01-06T02:02:42.946Z,20.70
2023-01-06T02:05:12.306Z,20.69
2023-01-06T02:07:38.924Z,20.63
2023-01-06T02:10:09.611Z,20.69
2023-01-06T02:12:36.743Z,20.67
2023-01-06T02:15:04.055Z,20.66
2023-01-06T02:17:52.666Z,20.66
2023-01-06T02:20:54.578Z,20.66
2023-01-06T02:23:24.146Z,20.69
2023-01-06T02:26:05.953Z,20.71
2023-01-06T02:28:50.050Z,20.65
2023-01-06T02:31:16.713Z,20.68
2023-01-06T02:33:49.880Z,20.68
2023-01-06T02:36:40.369Z,20.66
2023-01-06T02:39:32.073Z,20.68
2023-01-06T02:42:27.476Z,20.65
2023-01-06T02:45:21.442Z,20.66
2023-01-06T02:48:20.497Z,20.66
2023-01-06T02:50:57.304Z,20.62
2023-01-06T02:53:36.713Z,20.65
2023-01-06T02:56:03.999Z,20.58
2023-01-06T02:58:34.017Z,20.66
2023-01-06T03:01:08.415Z,20.78
2023-01-06T03:03:38.072Z,20.92
2023-01-06T03:06:11.008Z,21.10
2023-01-06T03:08:38.675Z,21.26
2023-01-06T03:11:05.539Z,21.43
2023-01-06T03:14:14.054Z,21.51
2023-01-06T03:16:40.851Z,21.58
2023-01-06T03:19:07.884Z,21.63
2023-01-06T03:21:39.553Z,21.73
2023-01-06T03:24:07.821Z,21.75
2023-01-06T03:26:35.460Z,21.79
2023-01-06T03:29:06.424Z,21.77
2023-01-06T03:32:13.012Z,21.90
2023-01-06T03:34:56.492Z,21.99
2023-01-06T03:37:31.846Z,22.09
2023-01-06T03:40:09.872Z,22.09
2023-01-06T03:43:10.874Z,22.14
2023-01-06T03:45:40.779Z,22.18
2023-01-06T03:48:15.969Z,22.26
2023-01-06T03:50:51.364Z,22.28
2023-01-06T03:53:30.204Z,22.27
2023-01-06T03:56:43.190Z,22.35
2023-01-06T03:59:14.951Z,22.37
2023-01-06T04:01:43.667Z,22.43
2023-01-06T04:04:10.369Z,22.45
2023-01-06T04:06:37.421Z,22.47
2023-01-06T04:09:04.167Z,22.48
2023-01-06T04:11:49.625Z,22.51
2023-01-06T04:14:16.212Z,22.63
2023-01-06T04:16:42.774Z,22.53
2023-01-06T04:19:09.333Z,22.48
2023-01-06T04:21:35.913Z,22.32
2023-01-06T04:24:02.505Z,22.22
2023-01-06T04:26:29.397Z,22.10
2023-01-06T04:28:56.372Z,21.99
2023-01-06T04:31:22.960Z,21.85
2023-01-06T04:33:49.550Z,21.79
2023-01-06T04:36:16.110Z,21.67
2023-01-06T04:38:42.754Z,21.61
2023-01-06T04:41:09.326Z,21.52
2023-01-06T04:43:35.931Z,21.43
2023-01-06T04:46:02.542Z,21.41
2023-01-06T04:48:29.226Z,21.33
2023-01-06T04:51:02.944Z,21.33
2023-01-06T04:53:29.712Z,21.27
2023-01-06T04:55:56.285Z,21.19
2023-01-06T04:58:22.902Z,21.27
2023-01-06T05:00:49.449Z,21.27
2023-01-06T05:03:16.041Z,21.27
2023-01-06T05:05:42.597Z,21.29
2023-01-06T05:08:09.154Z,21.21
2023-01-06T05:10:35.699Z,21.20
2023-01-06T05:13:02.251Z,21.14
2023-01-06T05:15:28.807Z,21.15
2023-01-06T05:17:55.368Z,21.16
2023-01-06T05:20:21.944Z,21.15
2023-01-06T05:22:48.506Z,21.12
2023-01-06T05:25:15.157Z,21.06
2023-01-06T05:27:41.769Z,21.07
2023-01-06T05:30:08.921Z,21.12
2023-01-06T05:32:35.763Z,21.01
2023-01-06T05:35:02.490Z,21.04
2023-01-06T05:37:29.066Z,21.03
2023-01-06T05:39:55.652Z,21.00
2023-01-06T05:42:22.209Z,20.99
2023-01-06T05:44:48.798Z,21.00
2023-01-06T05:47:15.362Z,20.96
2023-01-06T05:49:41.962Z,20.98
2023-01-06T05:52:08.555Z,20.95
2023-01-06T05:54:35.151Z,20.91
2023-01-06T05:57:01.740Z,20.83
2023-01-06T05:59:28.331Z,20.91
2023-01-06T06:01:54.933Z,20.91
2023-01-06T06:04:21.557Z,20.82
2023-01-06T06:06:48.123Z,20.93
2023-01-06T06:09:14.734Z,20.87
2023-01-06T06:11:41.264Z,20.88
2023-01-06T06:14:10.357Z,20.84
2023-01-06T06:16:36.961Z,20.66
2023-01-06T06:19:03.549Z,20.82
2023-01-06T06:21:31.618Z,20.78
2023-01-06T06:23:59.725Z,20.80
2023-01-06T06:26:26.656Z,20.77
2023-01-06T06:28:53.408Z,20.77
2023-01-06T06:31:28.565Z,20.78
2023-01-06T06:34:01.841Z,20.77
2023-01-06T06:36:29.185Z,20.80
2023-01-06T06:38:56.181Z,20.79
2023-01-06T06:41:24.633Z,20.78
2023-01-06T06:43:51.797Z,20.72
2023-01-06T06:46:19.219Z,20.71
2023-01-06T06:48:46.073Z,20.72
2023-01-06T06:51:16.808Z,20.71
2023-01-06T06:53:44.186Z,20.77
2023-01-06T06:56:11.776Z,20.73
2023-01-06T06:58:38.780Z,20.69
2023-01-06T07:01:10.939Z,20.67
2023-01-06T07:03:37.989Z,20.70
2023-01-06T07:06:06.931Z,20.67
2023-01-06T07:08:34.325Z,20.71
2023-01-06T07:11:01.876Z,20.77
2023-01-06T07:13:28.689Z,20.67
2023-01-06T07:15:55.497Z,20.72
2023-01-06T07:18:22.160Z,20.72
2023-01-06T07:20:50.552Z,20.76
2023-01-06T07:23:17.528Z,20.79
2023-01-06T07:25:44.137Z,20.89
2023-01-06T07:28:10.865Z,20.89
2023-01-06T07:30:37.566Z,20.92
2023-01-06T07:33:04.853Z,20.93
2023-01-06T07:35:31.611Z,20.95
2023-01-06T07:38:03.592Z,20.92
2023-01-06T07:40:30.166Z,20.89
2023-01-06T07:42:56.728Z,20.90
2023-01-06T07:45:23.385Z,20.85
2023-01-06T07:47:52.524Z,20.86
2023-01-06T07:50:19.105Z,20.86
2023-01-06T07:52:45.695Z,20.86
2023-01-06T07:55:12.339Z,20.84
2023-01-06T07:57:38.915Z,20.82
2023-01-06T08:00:06.130Z,20.79
2023-01-06T08:02:32.744Z,20.79
2023-01-06T08:05:00.346Z,20.80
2023-01-06T08:07:27.027Z,20.81
2023-01-06T08:09:53.588Z,20.76
2023-01-06T08:12:20.170Z,20.79
2023-01-06T08:14:46.775Z,20.78
2023-01-06T08:17:14.234Z,20.78
2023-01-06T08:19:40.836Z,20.72
2023-01-06T08:22:07.521Z,20.38
2023-01-06T08:24:34.130Z,20.53
2023-01-06T08:27:00.784Z,20.63
2023-01-06T08:29:27.776Z,20.66
2023-01-06T08:32:02.241Z,20.66
2023-01-06T08:34:36.020Z,20.64
2023-01-06T08:37:02.641Z,20.63
2023-01-06T08:39:29.221Z,20.56
2023-01-06T08:41:55.804Z,20.62
2023-01-06T08:44:22.402Z,20.54
2023-01-06T08:46:48.979Z,20.66
2023-01-06T08:49:15.562Z,20.59
2023-01-06T08:51:42.141Z,20.50
2023-01-06T08:54:08.722Z,20.54
2023-01-06T08:56:35.424Z,20.47
2023-01-06T08:59:03.746Z,20.49
2023-01-06T09:01:33.414Z,20.59
2023-01-06T09:04:02.340Z,20.61
2023-01-06T09:06:29.139Z,20.54
2023-01-06T09:08:57.334Z,20.50
2023-01-06T09:11:24.619Z,20.48
2023-01-06T09:13:51.657Z,20.53
2023-01-06T09:16:19.179Z,20.55
2023-01-06T09:18:50.215Z,20.53
2023-01-06T09:21:18.850Z,20.49
2023-01-06T09:23:45.522Z,20.58
2023-01-06T09:26:13.234Z,20.55
2023-01-06T09:28:41.108Z,20.60
2023-01-06T09:31:08.513Z,20.60
2023-01-06T09:33:35.492Z,20.66
2023-01-06T09:36:02.236Z,20.66
2023-01-06T09:38:28.836Z,20.63
2023-01-06T09:41:26.477Z,20.68
2023-01-06T09:44:06.331Z,20.69
2023-01-06T09:46:37.800Z,20.66
2023-01-06T09:49:19.337Z,20.69
2023-01-06T09:51:46.079Z,20.58
2023-01-06T09:54:21.304Z,20.66
2023-01-06T09:56:54.654Z,20.67
2023-01-06T09:59:48.602Z,20.61
2023-01-06T10:02:26.313Z,20.67
2023-01-06T10:04:52.941Z,20.61
2023-01-06T10:08:02.383Z,20.57
2023-01-06T10:10:45.737Z,20.58
2023-01-06T10:13:35.512Z,20.67
2023-01-06T10:16:25.611Z,20.64
2023-01-06T10:19:11.514Z,20.60
2023-01-06T10:21:50.731Z,20.54
2023-01-06T10:24:20.093Z,20.63
2023-01-06T10:26:55.563Z,20.56
2023-01-06T10:29:24.969Z,20.63
2023-01-06T10:31:54.642Z,20.62
2023-01-06T10:34:28.003Z,20.67
2023-01-06T10:37:03.348Z,20.72
2023-01-06T10:39:31.778Z,20.67
2023-01-06T10:42:24.596Z,20.63
2023-01-06T10:44:51.202Z,20.64
2023-01-06T10:47:32.490Z,20.65
2023-01-06T10:50:00.613Z,20.59
2023-01-06T10:52:28.366Z,20.61
2023-01-06T10:55:02.833Z,20.64
2023-01-06T10:57:35.814Z,20.64
2023-01-06T11:00:08.594Z,20.72
2023-01-06T11:02:35.331Z,20.68
2023-01-06T11:05:02.664Z,20.74
2023-01-06T11:07:30.304Z,20.71
2023-01-06T11:09:57.713Z,20.68
2023-01-06T11:12:30.488Z,20.73
2023-01-06T11:15:01.893Z,20.83
2023-01-06T11:17:29.856Z,20.77
2023-01-06T11:20:17.624Z,20.82
2023-01-06T11:22:44.897Z,20.77
2023-01-06T11:25:20.320Z,20.82
2023-01-06T11:28:09.609Z,20.80
2023-01-06T11:30:44.082Z,20.80
2023-01-06T11:33:30.657Z,20.84
2023-01-06T11:35:58.569Z,20.79
2023-01-06T11:38:25.722Z,20.80
2023-01-06T11:40:53.809Z,20.74
2023-01-06T11:43:30.626Z,20.77
2023-01-06T11:46:05.913Z,20.74
2023-01-06T11:48:36.908Z,20.73
2023-01-06T11:51:05.881Z,20.76
2023-01-06T11:53:34.330Z,20.73
2023-01-06T11:56:03.956Z,20.71
2023-01-06T11:58:51.865Z,20.71
2023-01-06T12:01:36.661Z,20.73
2023-01-06T12:04:31.576Z,20.71
2023-01-06T12:07:34.110Z,20.66
2023-01-06T12:10:06.895Z,20.68
2023-01-06T12:12:33.490Z,20.67
2023-01-06T12:15:01.408Z,20.63
2023-01-06T12:17:43.784Z,20.65
2023-01-06T12:20:30.270Z,20.63
2023-01-06T12:23:26.338Z,20.60
2023-01-06T12:25:57.581Z,20.57
2023-01-06T12:28:31.595Z,20.60
2023-01-06T12:31:08.452Z,20.63
2023-01-06T12:33:40.794Z,20.72
2023-01-06T12:36:22.764Z,20.66
2023-01-06T12:38:56.209Z,20.62
2023-01-06T12:41:29.914Z,20.63
2023-01-06T12:44:10.177Z,20.64
2023-01-06T12:46:45.711Z,20.61
2023-01-06T12:49:42.479Z,20.68
2023-01-06T12:52:18.490Z,20.64
2023-01-06T12:54:52.653Z,20.66
2023-01-06T12:57:37.667Z,20.67
2023-01-06T13:00:10.434Z,20.62
2023-01-06T13:02:58.740Z,20.60
2023-01-06T13:05:33.138Z,20.56
2023-01-06T13:08:06.149Z,20.60
2023-01-06T13:11:17.155Z,20.59
2023-01-06T13:13:55.528Z,20.57
2023-01-06T13:16:39.353Z,20.55
2023-01-06T13:19:19.596Z,20.50
2023-01-06T13:21:49.061Z,20.49
2023-01-06T13:24:21.742Z,20.52
2023-01-06T13:27:19.539Z,20.47
2023-01-06T13:29:58.072Z,20.44
2023-01-06T13:32:49.301Z,20.47
2023-01-06T13:35:31.055Z,20.47
2023-01-06T13:37:57.585Z,20.49
2023-01-06T13:40:27.283Z,20.42
2023-01-06T13:43:00.804Z,20.56
2023-01-06T13:45:32.952Z,20.45
2023-01-06T13:48:01.339Z,20.45
2023-01-06T13:50:28.815Z,20.43
2023-01-06T13:52:56.138Z,20.49
2023-01-06T13:55:26.164Z,20.49
2023-01-06T13:57:52.916Z,20.47
2023-01-06T14:00:21.244Z,20.50
2023-01-06T14:02:50.865Z,20.46
2023-01-06T14:05:20.184Z,20.46
2023-01-06T14:07:59.806Z,20.46
2023-01-06T14:10:42.491Z,20.49
2023-01-06T14:13:24.849Z,20.50
2023-01-06T14:16:06.599Z,20.52
2023-01-06T14:18:39.996Z,20.54
2023-01-06T14:21:12.440Z,20.55
2023-01-06T14:23:53.997Z,20.51
2023-01-06T14:26:39.913Z,20.46
2023-01-06T14:29:40.945Z,20.54
2023-01-06T14:32:19.227Z,20.60
2023-01-06T14:35:02.011Z,20.58
2023-01-06T14:37:40.542Z,20.59
2023-01-06T14:40:17.101Z,20.61
2023-01-06T14:42:45.564Z,20.59
2023-01-06T14:45:23.337Z,20.62
2023-01-06T14:48:14.859Z,20.56
2023-01-06T14:50:50.725Z,20.59
2023-01-06T14:53:33.417Z,20.56
2023-01-06T14:56:00.635Z,20.57
2023-01-06T14:58:36.744Z,20.57
2023-01-06T15:01:04.772Z,20.54
2023-01-06T15:03:32.275Z,20.54
2023-01-06T15:06:20.999Z,20.55
2023-01-06T15:08:48.480Z,20.51
2023-01-06T15:11:28.387Z,20.53
2023-01-06T15:13:55.619Z,20.53
2023-01-06T15:16:31.234Z,20.53
2023-01-06T15:18:59.543Z,20.52
2023-01-06T15:21:26.395Z,20.52
2023-01-06T15:23:55.268Z,20.52
2023-01-06T15:26:27.007Z,20.50
2023-01-06T15:29:01.943Z,20.51
2023-01-06T15:31:34.721Z,20.56
2023-01-06T15:34:23.192Z,20.55
2023-01-06T15:36:53.942Z,20.57
2023-01-06T15:39:27.654Z,20.58
2023-01-06T15:41:55.770Z,20.58
2023-01-06T15:44:42.745Z,20.55
2023-01-06T15:47:12.212Z,20.60
2023-01-06T15:49:43.692Z,20.58
2023-01-06T15:52:19.539Z,20.58
2023-01-06T15:54:46.619Z,20.59
2023-01-06T15:57:16.867Z,20.57
2023-01-06T15:59:54.392Z,20.53
2023-01-06T16:02:24.958Z,20.51
2023-01-06T16:04:52.095Z,20.52
2023-01-06T16:07:36.228Z,20.49
2023-01-06T16:10:03.387Z,20.45
2023-01-06T16:12:30.095Z,20.40
2023-01-06T16:14:56.663Z,20.40
2023-01-06T16:17:35.203Z,20.34
2023-01-06T16:20:07.254Z,20.35
2023-01-06T16:22:48.116Z,20.35
2023-01-06T16:25:35.386Z,20.37
2023-01-06T16:28:04.730Z,20.32
2023-01-06T16:30:36.620Z,20.37
2023-01-06T16:33:04.540Z,20.41
2023-01-06T16:35:33.357Z,20.38
2023-01-06T16:38:00.534Z,20.36
2023-01-06T16:40:28.610Z,20.36
2023-01-06T16:43:00.610Z,20.41
2023-01-06T16:45:43.056Z,20.40
2023-01-06T16:48:15.091Z,20.38
2023-01-06T16:50:44.842Z,20.41
2023-01-06T16:53:20.776Z,20.41
2023-01-06T16:55:55.278Z,20.39
2023-01-06T16:58:24.232Z,20.42
2023-01-06T17:00:52.597Z,20.39
2023-01-06T17:03:22.156Z,20.45
2023-01-06T17:05:48.969Z,20.37
2023-01-06T17:08:17.658Z,20.47
2023-01-06T17:10:44.937Z,20.44
2023-01-06T17:13:34.938Z,20.48
2023-01-06T17:16:26.915Z,20.44
2023-01-06T17:19:15.997Z,20.42
2023-01-06T17:21:42.561Z,20.46
2023-01-06T17:24:09.067Z,20.47
2023-01-06T17:26:35.980Z,20.48
2023-01-06T17:29:10.363Z,20.48
2023-01-06T17:31:42.157Z,20.40
2023-01-06T17:34:25.028Z,20.42
2023-01-06T17:36:53.396Z,20.46
2023-01-06T17:39:22.657Z,20.52
2023-01-06T17:41:52.121Z,20.46
2023-01-06T17:44:25.440Z,20.46
2023-01-06T17:46:52.217Z,20.43
2023-01-06T17:49:18.810Z,20.42
2023-01-06T17:51:46.516Z,20.48
2023-01-06T17:54:36.501Z,20.49
2023-01-06T17:57:15.502Z,20.43
2023-01-06T17:59:42.611Z,20.43
2023-01-06T18:02:43.116Z,20.42
2023-01-06T18:05:24.619Z,20.40
2023-01-06T18:08:14.409Z,20.44
2023-01-06T18:10:45.938Z,20.41
2023-01-06T18:13:35.690Z,20.45
2023-01-06T18:16:05.810Z,20.44
2023-01-06T18:18:36.676Z,20.46
2023-01-06T18:21:25.937Z,20.46
2023-01-06T18:23:52.781Z,20.43
2023-01-06T18:26:28.640Z,20.48
2023-01-06T18:29:15.853Z,20.47
2023-01-06T18:31:44.117Z,20.45
2023-01-06T18:34:27.173Z,20.42
2023-01-06T18:36:55.985Z,20.43
2023-01-06T18:39:29.857Z,20.42
2023-01-06T18:42:25.799Z,20.43
2023-01-06T18:45:18.453Z,20.41
2023-01-06T18:47:52.719Z,20.42
2023-01-06T18:50:23.140Z,20.45
2023-01-06T18:52:50.753Z,20.51
2023-01-06T18:55:39.152Z,20.51
2023-01-06T18:58:18.360Z,20.48
2023-01-06T19:00:52.309Z,20.57
2023-01-06T19:03:41.192Z,20.57
2023-01-06T19:06:13.471Z,20.57
2023-01-06T19:08:43.123Z,20.53
2023-01-06T19:11:15.649Z,20.56
2023-01-06T19:13:42.471Z,20.51
2023-01-06T19:16:27.570Z,20.54
2023-01-06T19:18:57.863Z,20.49
2023-01-06T19:21:24.721Z,20.47
2023-01-06T19:23:51.292Z,20.52
2023-01-06T19:26:41.237Z,20.49
2023-01-06T19:29:14.521Z,20.47
2023-01-06T19:31:51.203Z,20.47
2023-01-06T19:34:17.813Z,20.49
2023-01-06T19:36:48.672Z,20.46
2023-01-06T19:39:32.706Z,20.46
2023-01-06T19:42:13.408Z,20.46
2023-01-06T19:44:40.483Z,20.41
2023-01-06T19:47:26.117Z,20.44
2023-01-06T19:49:58.678Z,20.45
2023-01-06T19:52:41.395Z,20.45
2023-01-06T19:55:14.141Z,20.40
2023-01-06T19:57:44.565Z,20.45
2023-01-06T20:00:47.844Z,20.38
2023-01-06T20:03:37.297Z,20.38
2023-01-06T20:06:04.867Z,20.41
2023-01-06T20:08:31.437Z,20.31
2023-01-06T20:10:58.027Z,20.40
2023-01-06T20:13:24.575Z,20.35
2023-01-06T20:15:51.300Z,20.40
2023-01-06T20:18:17.885Z,20.36
2023-01-06T20:20:44.451Z,20.40
2023-01-06T20:23:11.437Z,20.41
2023-01-06T20:25:38.057Z,20.44
2023-01-06T20:28:04.823Z,20.45
2023-01-06T20:30:31.466Z,20.48
2023-01-06T20:32:58.206Z,20.42
2023-01-06T20:35:24.891Z,20.47
2023-01-06T20:37:51.547Z,20.46
2023-01-06T20:40:18.386Z,20.41
2023-01-06T20:42:45.304Z,20.43
2023-01-06T20:45:12.561Z,20.37
2023-01-06T20:47:39.450Z,20.45
2023-01-06T20:50:07.611Z,20.43
2023-01-06T20:52:34.997Z,20.42
2023-01-06T20:55:01.618Z,20.45
2023-01-06T20:57:28.267Z,20.45
2023-01-06T20:59:54.848Z,20.43
2023-01-06T21:02:21.538Z,20.42
2023-01-06T21:04:48.169Z,20.39
2023-01-06T21:07:14.757Z,20.38
2023-01-06T21:09:41.351Z,20.46
2023-01-06T21:12:08.031Z,20.39
2023-01-06T21:14:35.419Z,20.38
2023-01-06T21:17:03.796Z,20.39
2023-01-06T21:19:30.450Z,20.38
2023-01-06T21:21:57.019Z,20.40
2023-01-06T21:24:23.832Z,20.38
2023-01-06T21:26:50.443Z,20.40
2023-01-06T21:29:16.976Z,20.35
2023-01-06T21:31:43.909Z,20.38
2023-01-06T21:34:10.468Z,20.40
2023-01-06T21:36:37.041Z,20.42
2023-01-06T21:39:06.913Z,20.39
2023-01-06T21:41:52.135Z,20.46
2023-01-06T21:44:20.689Z,20.46
2023-01-06T21:46:47.406Z,20.44
2023-01-06T21:49:13.967Z,20.46
2023-01-06T21:51:41.025Z,20.43
2023-01-06T21:54:07.720Z,20.46
2023-01-06T21:56:35.682Z,20.47
2023-01-06T21:59:02.495Z,20.43
2023-01-06T22:01:29.281Z,20.44
2023-01-06T22:03:56.249Z,20.45
2023-01-06T22:06:24.025Z,20.50
2023-01-06T22:08:52.277Z,20.50
2023-01-06T22:11:19.652Z,20.52
2023-01-06T22:13:46.380Z,20.55
2023-01-06T22:16:13.648Z,20.50
2023-01-06T22:18:40.379Z,20.54
2023-01-06T22:21:07.168Z,20.55
2023-01-06T22:23:34.308Z,20.51
2023-01-06T22:26:00.904Z,20.47
2023-01-06T22:28:28.053Z,20.42
2023-01-06T22:30:55.103Z,20.48
2023-01-06T22:33:21.821Z,20.50
2023-01-06T22:35:48.529Z,20.43
2023-01-06T22:38:15.718Z,20.42
2023-01-06T22:40:42.489Z,20.44
2023-01-06T22:43:09.076Z,20.44
2023-01-06T22:45:35.651Z,20.47
2023-01-06T22:48:02.234Z,20.44
2023-01-06T22:50:28.838Z,20.48
2023-01-06T22:52:56.494Z,20.49
2023-01-06T22:55:23.260Z,20.45
2023-01-06T22:57:49.926Z,20.47
2023-01-06T23:00:18.618Z,20.43
2023-01-06T23:02:45.464Z,20.39
2023-01-06T23:05:12.321Z,20.41
2023-01-06T23:07:44.169Z,20.40
2023-01-06T23:10:13.372Z,20.37
2023-01-06T23:12:41.758Z,20.37
2023-01-06T23:15:09.329Z,20.32
2023-01-06T23:17:37.710Z,20.35
2023-01-06T23:20:05.483Z,20.36
2023-01-06T23:22:32.078Z,20.39
2023-01-06T23:24:58.691Z,20.37
2023-01-06T23:27:25.277Z,20.40
2023-01-06T23:29:51.862Z,20.40
2023-01-06T23:32:18.434Z,20.37
2023-01-06T23:34:44.985Z,20.37
2023-01-06T23:37:11.546Z,20.43
2023-01-06T23:39:38.119Z,20.40
2023-01-06T23:42:07.157Z,20.42
2023-01-06T23:44:33.727Z,20.44
2023-01-06T23:47:00.307Z,20.45
2023-01-06T23:49:26.845Z,20.47
2023-01-06T23:51:53.411Z,20.42
2023-01-06T23:54:20.062Z,20.37
2023-01-06T23:56:46.731Z,20.42
2023-01-06T23:59:13.672Z,20.39
